createdAt,value
2022-11-05T00:01:08.166Z,88.81
2022-11-05T00:03:48.278Z,89.30
2022-11-05T00:06:29.200Z,88.96
2022-11-05T00:09:09.022Z,88.68
2022-11-05T00:11:49.370Z,90.28
2022-11-05T00:14:29.684Z,89.97
2022-11-05T00:16:51.167Z,89.79
2022-11-05T00:19:13.539Z,89.91
2022-11-05T00:21:56.067Z,90.00
2022-11-05T00:24:36.460Z,90.77
2022-11-05T00:26:57.930Z,91.51
2022-11-05T00:29:19.397Z,90.52
2022-11-05T00:31:40.853Z,90.85
2022-11-05T00:34:02.341Z,90.44
2022-11-05T00:36:23.847Z,90.74
2022-11-05T00:38:45.374Z,91.79
2022-11-05T00:41:06.862Z,91.07
2022-11-05T00:43:47.247Z,91.02
2022-11-05T00:46:09.026Z,90.80
2022-11-05T00:48:49.199Z,91.03
2022-11-05T00:51:10.657Z,91.07
2022-11-05T00:53:32.660Z,92.30
2022-11-05T00:55:54.633Z,91.65
2022-11-05T00:58:21.373Z,91.67
2022-11-05T01:00:48.008Z,91.64
2022-11-05T01:03:13.731Z,91.65
2022-11-05T01:05:40.478Z,93.61
2022-11-05T01:08:02.132Z,93.11
2022-11-05T01:10:24.338Z,92.07
2022-11-05T01:12:45.820Z,92.24
2022-11-05T01:15:07.875Z,92.26
2022-11-05T01:17:29.366Z,91.76
2022-11-05T01:19:51.236Z,91.40
2022-11-05T01:22:12.843Z,91.53
2022-11-05T01:24:34.402Z,91.36
2022-11-05T01:26:55.980Z,91.20
2022-11-05T01:29:17.606Z,90.77
2022-11-05T01:31:39.076Z,90.58
2022-11-05T01:34:01.426Z,90.69
2022-11-05T01:36:22.979Z,90.99
2022-11-05T01:38:44.742Z,90.64
2022-11-05T01:41:06.746Z,90.38
2022-11-05T01:43:57.491Z,90.45
2022-11-05T01:46:23.736Z,89.95
2022-11-05T01:48:48.842Z,90.32
2022-11-05T01:51:16.175Z,90.02
2022-11-05T01:53:40.451Z,90.29
2022-11-05T01:56:14.579Z,89.71
2022-11-05T01:58:53.170Z,89.88
2022-11-05T02:01:15.759Z,89.86
2022-11-05T02:03:37.495Z,89.29
2022-11-05T02:06:02.555Z,89.19
2022-11-05T02:08:48.937Z,89.21
2022-11-05T02:11:14.184Z,89.28
2022-11-05T02:13:36.248Z,89.07
2022-11-05T02:16:24.071Z,88.85
2022-11-05T02:18:51.845Z,88.16
2022-11-05T02:22:01.590Z,87.92
2022-11-05T02:24:45.758Z,87.99
2022-11-05T02:27:27.458Z,88.37
2022-11-05T02:30:05.543Z,88.39
2022-11-05T02:32:32.792Z,88.83
2022-11-05T02:35:20.084Z,88.21
2022-11-05T02:37:53.194Z,88.00
2022-11-05T02:40:27.246Z,87.84
2022-11-05T02:43:16.541Z,87.36
2022-11-05T02:45:51.600Z,87.58
2022-11-05T02:48:40.426Z,87.30
2022-11-05T02:51:55.382Z,87.86
2022-11-05T02:54:24.143Z,88.25
2022-11-05T02:56:50.051Z,87.83
2022-11-05T02:59:11.779Z,87.75
2022-11-05T03:01:35.695Z,87.71
2022-11-05T03:04:00.821Z,87.88
2022-11-05T03:06:34.311Z,87.94
2022-11-05T03:09:33.333Z,87.84
2022-11-05T03:11:55.002Z,88.28
2022-11-05T03:14:24.028Z,89.52
2022-11-05T03:16:55.563Z,89.93
2022-11-05T03:19:41.802Z,89.49
2022-11-05T03:22:11.967Z,89.28
2022-11-05T03:24:36.712Z,89.04
2022-11-05T03:27:05.167Z,90.26
2022-11-05T03:29:33.585Z,89.67
2022-11-05T03:31:57.534Z,89.58
2022-11-05T03:34:26.098Z,89.34
2022-11-05T03:36:53.598Z,88.97
2022-11-05T03:39:21.721Z,90.34
2022-11-05T03:41:47.403Z,90.72
2022-11-05T03:44:13.187Z,90.01
2022-11-05T03:46:41.361Z,91.37
2022-11-05T03:49:06.291Z,90.36
2022-11-05T03:51:52.787Z,89.47
2022-11-05T03:54:14.692Z,89.81
2022-11-05T03:56:36.083Z,91.29
2022-11-05T03:59:00.572Z,90.42
2022-11-05T04:01:22.106Z,91.93
2022-11-05T04:03:43.742Z,93.62
2022-11-05T04:06:26.186Z,92.47
2022-11-05T04:09:06.475Z,91.58
2022-11-05T04:11:46.399Z,92.17
2022-11-05T04:14:07.911Z,91.32
2022-11-05T04:16:48.082Z,92.54
2022-11-05T04:19:09.553Z,92.51
2022-11-05T04:21:49.486Z,92.18
2022-11-05T04:24:11.063Z,92.08
2022-11-05T04:26:32.533Z,92.17
2022-11-05T04:29:12.570Z,92.96
2022-11-05T04:31:34.067Z,92.43
2022-11-05T04:33:55.539Z,93.30
2022-11-05T04:36:17.007Z,92.90
2022-11-05T04:38:38.494Z,92.36
2022-11-05T04:41:16.928Z,92.41
2022-11-05T04:43:38.444Z,93.12
2022-11-05T04:45:59.899Z,92.09
2022-11-05T04:48:21.387Z,91.74
2022-11-05T04:50:42.839Z,94.01
2022-11-05T04:53:04.328Z,94.14
2022-11-05T04:55:26.471Z,93.26
2022-11-05T04:57:52.061Z,94.31
2022-11-05T05:00:13.985Z,94.82
2022-11-05T05:02:36.083Z,94.57
2022-11-05T05:04:57.588Z,93.86
2022-11-05T05:07:19.077Z,93.66
2022-11-05T05:09:40.573Z,94.11
2022-11-05T05:12:02.615Z,93.41
2022-11-05T05:14:24.161Z,94.39
2022-11-05T05:16:45.613Z,93.79
2022-11-05T05:19:07.099Z,93.55
2022-11-05T05:21:40.908Z,93.49
2022-11-05T05:24:03.713Z,93.30
2022-11-05T05:26:25.405Z,92.82
2022-11-05T05:28:46.893Z,92.92
2022-11-05T05:31:09.179Z,93.40
2022-11-05T05:33:30.713Z,93.27
2022-11-05T05:35:52.162Z,92.67
2022-11-05T05:38:13.628Z,93.52
2022-11-05T05:40:35.584Z,92.95
2022-11-05T05:42:57.061Z,93.71
2022-11-05T05:45:18.551Z,93.42
2022-11-05T05:47:40.043Z,92.87
2022-11-05T05:50:01.506Z,92.58
2022-11-05T05:52:22.968Z,92.03
2022-11-05T05:54:44.466Z,91.82
2022-11-05T05:57:05.947Z,91.39
2022-11-05T05:59:27.429Z,91.25
2022-11-05T06:01:48.982Z,91.33
2022-11-05T06:04:10.771Z,91.30
2022-11-05T06:06:32.464Z,90.99
2022-11-05T06:08:55.657Z,91.03
2022-11-05T06:11:17.162Z,91.43
2022-11-05T06:13:38.700Z,91.48
2022-11-05T06:16:06.140Z,91.53
2022-11-05T06:18:27.836Z,91.48
2022-11-05T06:20:49.289Z,90.95
2022-11-05T06:23:11.131Z,90.96
2022-11-05T06:25:34.955Z,91.51
2022-11-05T06:28:00.079Z,90.99
2022-11-05T06:30:23.495Z,91.81
2022-11-05T06:32:45.022Z,91.71
2022-11-05T06:35:06.651Z,91.42
2022-11-05T06:37:28.239Z,91.22
2022-11-05T06:39:49.738Z,91.27
2022-11-05T06:42:18.286Z,91.08
2022-11-05T06:44:40.623Z,91.18
2022-11-05T06:47:02.079Z,91.08
2022-11-05T06:49:24.781Z,91.04
2022-11-05T06:51:46.228Z,90.83
2022-11-05T06:54:08.779Z,90.64
2022-11-05T06:56:30.490Z,90.61
2022-11-05T06:58:52.003Z,90.96
2022-11-05T07:01:13.588Z,91.11
2022-11-05T07:03:36.525Z,90.78
2022-11-05T07:06:02.124Z,91.24
2022-11-05T07:08:24.310Z,91.02
2022-11-05T07:10:45.823Z,90.90
2022-11-05T07:13:08.735Z,92.03
2022-11-05T07:15:30.540Z,91.77
2022-11-05T07:17:57.655Z,91.51
2022-11-05T07:20:19.119Z,91.49
2022-11-05T07:22:40.616Z,92.32
2022-11-05T07:25:02.206Z,91.16
2022-11-05T07:27:23.752Z,90.91
2022-11-05T07:29:45.218Z,92.64
2022-11-05T07:32:06.787Z,94.36
2022-11-05T07:34:28.232Z,92.80
2022-11-05T07:36:49.793Z,92.22
2022-11-05T07:39:11.268Z,91.52
2022-11-05T07:41:32.750Z,91.39
2022-11-05T07:43:54.235Z,90.86
2022-11-05T07:46:15.769Z,90.84
2022-11-05T07:48:37.378Z,90.58
2022-11-05T07:50:58.895Z,90.00
2022-11-05T07:53:23.196Z,90.53
2022-11-05T07:55:46.022Z,90.76
2022-11-05T07:58:07.776Z,90.04
2022-11-05T08:00:30.186Z,89.58
2022-11-05T08:03:08.133Z,90.59
2022-11-05T08:05:31.906Z,90.62
2022-11-05T08:07:55.100Z,92.51
2022-11-05T08:10:16.611Z,92.41
2022-11-05T08:12:38.081Z,93.10
2022-11-05T08:14:59.627Z,92.17
2022-11-05T08:17:21.100Z,92.60
2022-11-05T08:19:42.644Z,90.87
2022-11-05T08:22:04.179Z,90.02
2022-11-05T08:24:25.632Z,88.09
2022-11-05T08:26:47.161Z,87.93
2022-11-05T08:29:08.658Z,87.98
2022-11-05T08:31:31.984Z,86.59
2022-11-05T08:33:57.097Z,84.16
2022-11-05T08:36:21.259Z,85.94
2022-11-05T08:38:42.756Z,88.99
2022-11-05T08:41:06.689Z,88.65
2022-11-05T08:43:28.182Z,88.52
2022-11-05T08:45:50.044Z,88.98
2022-11-05T08:48:17.329Z,87.75
2022-11-05T08:50:39.487Z,85.80
2022-11-05T08:53:01.076Z,86.28
2022-11-05T08:55:22.827Z,87.38
2022-11-05T08:57:46.146Z,87.81
2022-11-05T09:00:08.562Z,87.57
2022-11-05T09:02:30.165Z,87.67
2022-11-05T09:04:51.633Z,87.58
2022-11-05T09:07:13.121Z,86.66
2022-11-05T09:09:34.568Z,86.11
2022-11-05T09:12:11.836Z,87.06
2022-11-05T09:14:34.010Z,85.62
2022-11-05T09:16:55.532Z,86.27
2022-11-05T09:19:17.078Z,86.37
2022-11-05T09:21:38.584Z,86.52
2022-11-05T09:24:00.531Z,87.62
2022-11-05T09:26:22.096Z,88.67
2022-11-05T09:28:43.673Z,87.35
2022-11-05T09:31:07.667Z,87.53
2022-11-05T09:33:29.208Z,86.99
2022-11-05T09:35:51.856Z,87.40
2022-11-05T09:38:13.823Z,88.74
2022-11-05T09:40:52.852Z,87.89
2022-11-05T09:43:20.415Z,87.15
2022-11-05T09:45:42.776Z,88.15
2022-11-05T09:48:12.574Z,86.16
2022-11-05T09:50:40.222Z,83.31
2022-11-05T09:53:02.143Z,80.85
2022-11-05T09:55:30.633Z,82.05
2022-11-05T09:57:59.563Z,80.02
2022-11-05T10:00:21.305Z,75.49
2022-11-05T10:02:56.420Z,73.71
2022-11-05T10:05:20.404Z,72.33
2022-11-05T10:08:02.175Z,71.98
2022-11-05T10:10:37.855Z,70.59
2022-11-05T10:13:11.133Z,68.33
2022-11-05T10:15:41.184Z,68.39
2022-11-05T10:18:28.982Z,70.32
2022-11-05T10:20:50.546Z,71.00
2022-11-05T10:23:20.731Z,70.64
2022-11-05T10:25:46.694Z,69.21
2022-11-05T10:28:14.915Z,69.98
2022-11-05T10:30:37.016Z,69.98
2022-11-05T10:33:04.903Z,70.39
2022-11-05T10:35:31.017Z,69.49
2022-11-05T10:37:55.566Z,69.46
2022-11-05T10:40:45.203Z,69.52
2022-11-05T10:43:37.484Z,71.96
2022-11-05T10:46:21.989Z,72.25
2022-11-05T10:48:53.444Z,71.63
2022-11-05T10:51:15.202Z,71.30
2022-11-05T10:53:41.172Z,68.87
2022-11-05T10:56:03.372Z,70.18
2022-11-05T10:58:33.030Z,69.12
2022-11-05T11:00:54.539Z,69.32
2022-11-05T11:03:37.834Z,68.52
2022-11-05T11:06:01.152Z,67.08
2022-11-05T11:08:24.218Z,67.15
2022-11-05T11:10:54.735Z,68.66
2022-11-05T11:13:21.522Z,67.70
2022-11-05T11:15:43.058Z,67.81
2022-11-05T11:18:29.183Z,67.50
2022-11-05T11:20:50.714Z,69.04
2022-11-05T11:23:16.250Z,72.39
2022-11-05T11:25:50.465Z,69.98
2022-11-05T11:28:18.694Z,70.23
2022-11-05T11:30:48.073Z,72.89
2022-11-05T11:33:12.622Z,72.69
2022-11-05T11:35:38.156Z,74.16
2022-11-05T11:38:02.094Z,75.31
2022-11-05T11:40:30.169Z,75.41
2022-11-05T11:42:54.758Z,75.66
2022-11-05T11:45:31.717Z,71.83
2022-11-05T11:47:56.505Z,71.26
2022-11-05T11:50:32.306Z,71.28
2022-11-05T11:52:53.754Z,72.35
2022-11-05T11:55:15.213Z,67.92
2022-11-05T11:57:47.954Z,67.91
2022-11-05T12:00:10.318Z,66.73
2022-11-05T12:02:40.663Z,65.65
2022-11-05T12:05:31.421Z,65.92
2022-11-05T12:07:58.035Z,66.21
2022-11-05T12:10:34.485Z,66.73
2022-11-05T12:13:20.615Z,66.44
2022-11-05T12:15:57.648Z,66.67
2022-11-05T12:18:45.163Z,64.30
2022-11-05T12:21:15.365Z,65.25
2022-11-05T12:23:54.158Z,64.63
2022-11-05T12:26:18.229Z,64.32
2022-11-05T12:29:17.782Z,65.68
2022-11-05T12:32:21.556Z,65.70
2022-11-05T12:34:57.936Z,66.21
2022-11-05T12:38:27.485Z,64.55
2022-11-05T12:41:00.359Z,67.75
2022-11-05T12:43:32.043Z,65.75
2022-11-05T12:46:14.632Z,67.19
2022-11-05T12:48:57.291Z,68.62
2022-11-05T12:51:55.661Z,69.65
2022-11-05T12:54:39.671Z,71.09
2022-11-05T12:57:03.766Z,69.19
2022-11-05T12:59:34.770Z,69.96
2022-11-05T13:02:10.734Z,69.62
2022-11-05T13:04:46.403Z,70.43
2022-11-05T13:07:11.698Z,67.86
2022-11-05T13:10:04.033Z,67.20
2022-11-05T13:12:28.195Z,67.14
2022-11-05T13:15:01.028Z,65.66
2022-11-05T13:17:25.884Z,64.22
2022-11-05T13:19:54.688Z,67.19
2022-11-05T13:22:38.928Z,64.33
2022-11-05T13:25:06.162Z,63.61
2022-11-05T13:27:49.030Z,62.39
2022-11-05T13:30:19.096Z,62.94
2022-11-05T13:32:45.459Z,63.00
2022-11-05T13:35:17.033Z,61.70
2022-11-05T13:38:02.055Z,62.07
2022-11-05T13:40:39.125Z,63.07
2022-11-05T13:43:03.626Z,59.49
2022-11-05T13:45:54.213Z,61.09
2022-11-05T13:48:34.813Z,62.97
2022-11-05T13:51:17.643Z,64.61
2022-11-05T13:54:15.061Z,64.28
2022-11-05T13:56:45.400Z,61.62
2022-11-05T13:59:39.280Z,62.50
2022-11-05T14:02:04.402Z,64.53
2022-11-05T14:04:32.454Z,61.52
2022-11-05T14:06:55.415Z,61.96
2022-11-05T14:09:24.287Z,62.93
2022-11-05T14:11:53.798Z,61.28
2022-11-05T14:14:19.971Z,61.23
2022-11-05T14:17:09.434Z,61.45
2022-11-05T14:19:48.744Z,60.39
2022-11-05T14:22:37.708Z,61.63
2022-11-05T14:25:19.106Z,62.85
2022-11-05T14:27:43.880Z,64.44
2022-11-05T14:30:41.307Z,63.33
2022-11-05T14:33:04.842Z,65.13
2022-11-05T14:35:37.469Z,65.75
2022-11-05T14:38:00.051Z,66.50
2022-11-05T14:40:21.526Z,68.78
2022-11-05T14:43:00.712Z,68.94
2022-11-05T14:45:37.111Z,68.65
2022-11-05T14:48:35.547Z,67.20
2022-11-05T14:50:57.033Z,67.10
2022-11-05T14:53:39.582Z,67.62
2022-11-05T14:56:03.295Z,68.51
2022-11-05T14:58:35.410Z,69.79
2022-11-05T15:00:57.932Z,69.16
2022-11-05T15:03:28.748Z,68.98
2022-11-05T15:05:51.797Z,68.72
2022-11-05T15:08:50.223Z,68.86
2022-11-05T15:11:18.486Z,68.30
2022-11-05T15:13:55.113Z,68.06
2022-11-05T15:16:24.382Z,67.66
2022-11-05T15:18:47.303Z,67.63
2022-11-05T15:21:15.166Z,68.00
2022-11-05T15:23:42.090Z,67.54
2022-11-05T15:26:12.354Z,67.27
2022-11-05T15:28:46.352Z,67.56
2022-11-05T15:31:13.634Z,67.05
2022-11-05T15:33:35.202Z,66.89
2022-11-05T15:36:27.985Z,67.21
2022-11-05T15:39:15.499Z,67.59
2022-11-05T15:41:35.015Z,67.25
2022-11-05T15:43:56.612Z,67.08
2022-11-05T15:46:28.301Z,66.29
2022-11-05T15:48:52.834Z,66.41
2022-11-05T15:51:14.375Z,66.94
2022-11-05T15:54:16.057Z,67.35
2022-11-05T15:56:58.485Z,67.76
2022-11-05T15:59:23.197Z,68.07
2022-11-05T16:02:01.047Z,67.79
2022-11-05T16:04:25.955Z,68.08
2022-11-05T16:06:52.344Z,67.75
2022-11-05T16:09:22.927Z,68.39
2022-11-05T16:11:44.395Z,68.66
2022-11-05T16:14:20.155Z,68.98
2022-11-05T16:16:42.294Z,69.88
2022-11-05T16:19:40.203Z,70.99
2022-11-05T16:22:04.391Z,70.51
2022-11-05T16:24:29.320Z,71.28
2022-11-05T16:27:03.471Z,71.36
2022-11-05T16:29:32.336Z,71.67
2022-11-05T16:31:55.521Z,72.27
2022-11-05T16:34:27.950Z,72.31
2022-11-05T16:36:49.443Z,72.14
2022-11-05T16:39:10.880Z,72.42
2022-11-05T16:41:32.393Z,72.06
2022-11-05T16:43:59.204Z,72.05
2022-11-05T16:46:22.655Z,71.92
2022-11-05T16:48:44.282Z,72.69
2022-11-05T16:51:05.931Z,73.59
2022-11-05T16:53:27.383Z,73.25
2022-11-05T16:55:49.492Z,73.19
2022-11-05T16:58:20.581Z,72.68
2022-11-05T17:00:42.110Z,72.98
2022-11-05T17:03:04.170Z,72.64
2022-11-05T17:05:31.008Z,72.46
2022-11-05T17:07:53.218Z,73.07
2022-11-05T17:10:14.885Z,75.63
2022-11-05T17:12:36.387Z,75.15
2022-11-05T17:14:57.903Z,74.56
2022-11-05T17:17:19.373Z,74.45
2022-11-05T17:19:42.533Z,74.14
2022-11-05T17:22:04.207Z,73.90
2022-11-05T17:24:25.656Z,75.24
2022-11-05T17:26:47.317Z,74.67
2022-11-05T17:29:09.015Z,75.38
2022-11-05T17:31:30.548Z,76.05
2022-11-05T17:33:56.713Z,75.33
2022-11-05T17:36:18.226Z,76.16
2022-11-05T17:38:40.167Z,77.15
2022-11-05T17:41:01.871Z,76.71
2022-11-05T17:43:23.525Z,76.01
2022-11-05T17:45:48.057Z,75.99
2022-11-05T17:48:10.505Z,76.85
2022-11-05T17:50:32.098Z,78.02
2022-11-05T17:52:53.629Z,77.46
2022-11-05T17:55:18.056Z,77.47
2022-11-05T17:57:39.515Z,78.84
2022-11-05T18:00:00.989Z,77.63
2022-11-05T18:02:22.745Z,78.23
2022-11-05T18:04:44.631Z,78.01
2022-11-05T18:07:06.634Z,78.08
2022-11-05T18:09:28.221Z,77.50
2022-11-05T18:11:49.779Z,78.01
2022-11-05T18:14:11.419Z,77.56
2022-11-05T18:16:34.286Z,78.19
2022-11-05T18:18:56.304Z,78.00
2022-11-05T18:21:17.864Z,77.97
2022-11-05T18:23:39.326Z,78.38
2022-11-05T18:26:00.863Z,77.93
2022-11-05T18:28:22.349Z,78.32
2022-11-05T18:30:43.850Z,80.08
2022-11-05T18:33:05.491Z,79.08
2022-11-05T18:35:26.984Z,79.35
2022-11-05T18:37:48.457Z,81.17
2022-11-05T18:40:10.828Z,81.44
2022-11-05T18:42:32.426Z,81.44
2022-11-05T18:44:53.931Z,81.40
2022-11-05T18:47:15.460Z,81.45
2022-11-05T18:49:37.122Z,80.78
2022-11-05T18:51:58.609Z,80.66
2022-11-05T18:54:20.635Z,80.22
2022-11-05T18:56:45.513Z,80.08
2022-11-05T18:59:35.117Z,79.74
2022-11-05T19:01:48.790Z,79.56
2022-11-05T19:04:10.421Z,79.36
2022-11-05T19:06:32.222Z,79.65
2022-11-05T19:08:56.273Z,79.79
2022-11-05T19:11:24.601Z,79.75
2022-11-05T19:13:46.375Z,79.86
2022-11-05T19:16:14.338Z,79.91
2022-11-05T19:18:36.901Z,80.06
2022-11-05T19:20:58.366Z,79.79
2022-11-05T19:23:19.825Z,80.20
2022-11-05T19:25:41.334Z,80.43
2022-11-05T19:28:03.039Z,80.36
2022-11-05T19:30:25.669Z,81.44
2022-11-05T19:32:47.166Z,81.17
2022-11-05T19:35:08.857Z,81.25
2022-11-05T19:37:30.322Z,81.07
2022-11-05T19:39:52.091Z,80.90
2022-11-05T19:42:13.696Z,80.42
2022-11-05T19:44:35.287Z,83.35
2022-11-05T19:46:56.738Z,82.35
2022-11-05T19:49:19.343Z,82.61
2022-11-05T19:51:40.850Z,83.61
2022-11-05T19:54:03.681Z,82.65
2022-11-05T19:56:30.463Z,83.04
2022-11-05T19:58:53.216Z,82.69
2022-11-05T20:01:16.545Z,85.23
2022-11-05T20:03:38.641Z,85.22
2022-11-05T20:06:09.295Z,84.87
2022-11-05T20:08:30.780Z,86.47
2022-11-05T20:10:55.724Z,86.18
2022-11-05T20:13:19.926Z,89.06
2022-11-05T20:15:41.757Z,90.70
2022-11-05T20:18:03.236Z,92.10
2022-11-05T20:20:24.743Z,92.47
2022-11-05T20:22:46.218Z,92.14
2022-11-05T20:25:08.213Z,92.15
2022-11-05T20:27:29.652Z,93.71
2022-11-05T20:29:51.147Z,93.47
2022-11-05T20:32:12.754Z,94.57
2022-11-05T20:34:35.051Z,94.22
2022-11-05T20:36:56.587Z,93.83
2022-11-05T20:39:18.301Z,92.87
2022-11-05T20:41:39.838Z,93.25
2022-11-05T20:44:01.471Z,94.23
2022-11-05T20:46:23.813Z,94.65
2022-11-05T20:48:45.867Z,94.91
2022-11-05T20:51:10.163Z,95.01
2022-11-05T20:53:31.669Z,94.53
2022-11-05T20:55:53.175Z,94.13
2022-11-05T20:58:16.181Z,94.41
2022-11-05T21:00:38.324Z,92.82
2022-11-05T21:02:59.801Z,93.00
2022-11-05T21:05:21.700Z,92.85
2022-11-05T21:07:43.140Z,92.26
2022-11-05T21:10:06.523Z,92.32
2022-11-05T21:12:28.017Z,91.88
2022-11-05T21:14:51.032Z,92.65
2022-11-05T21:17:13.583Z,90.93
2022-11-05T21:19:36.108Z,91.06
2022-11-05T21:21:57.648Z,91.31
2022-11-05T21:24:19.150Z,91.25
2022-11-05T21:26:40.779Z,90.22
2022-11-05T21:29:02.267Z,89.41
2022-11-05T21:31:23.749Z,88.39
2022-11-05T21:33:45.214Z,88.25
2022-11-05T21:36:11.916Z,87.84
2022-11-05T21:38:33.388Z,86.65
2022-11-05T21:40:54.882Z,85.76
2022-11-05T21:43:16.996Z,85.88
2022-11-05T21:45:39.907Z,86.13
2022-11-05T21:48:01.402Z,85.89
2022-11-05T21:50:43.463Z,85.30
2022-11-05T21:53:34.078Z,85.21
2022-11-05T21:56:13.963Z,84.91
2022-11-05T21:58:56.196Z,85.07
2022-11-05T22:01:18.044Z,84.31
2022-11-05T22:03:39.740Z,84.41
2022-11-05T22:06:01.255Z,84.11
2022-11-05T22:08:22.848Z,83.90
2022-11-05T22:10:44.417Z,83.91
2022-11-05T22:13:05.902Z,82.93
2022-11-05T22:15:27.389Z,82.65
2022-11-05T22:17:50.742Z,82.99
2022-11-05T22:20:12.246Z,83.06
2022-11-05T22:22:34.449Z,82.21
2022-11-05T22:24:55.978Z,83.00
2022-11-05T22:27:20.550Z,83.04
2022-11-05T22:29:43.050Z,84.65
2022-11-05T22:32:05.457Z,87.60
2022-11-05T22:34:27.347Z,90.26
2022-11-05T22:36:48.949Z,90.87
2022-11-05T22:39:11.957Z,91.51
2022-11-05T22:41:33.825Z,91.87
2022-11-05T22:43:55.874Z,93.04
2022-11-05T22:46:22.860Z,94.69
2022-11-05T22:48:44.946Z,95.71
2022-11-05T22:51:08.539Z,95.90
2022-11-05T22:53:30.522Z,96.29
2022-11-05T22:55:51.972Z,96.23
2022-11-05T22:58:13.807Z,96.23
2022-11-05T23:00:37.175Z,96.42
2022-11-05T23:02:58.997Z,96.81
2022-11-05T23:05:20.672Z,97.24
2022-11-05T23:08:00.809Z,97.42
2022-11-05T23:10:40.789Z,96.52
2022-11-05T23:13:02.514Z,96.25
2022-11-05T23:15:42.478Z,95.96
2022-11-05T23:18:22.971Z,95.57
2022-11-05T23:21:03.110Z,95.83
2022-11-05T23:23:42.940Z,96.52
2022-11-05T23:26:24.446Z,95.69
2022-11-05T23:28:45.926Z,95.92
2022-11-05T23:31:27.666Z,94.95
2022-11-05T23:33:49.147Z,94.26
2022-11-05T23:36:31.543Z,95.45
2022-11-05T23:38:53.163Z,96.45
2022-11-05T23:41:33.244Z,95.43
2022-11-05T23:44:13.015Z,95.86
2022-11-05T23:46:53.187Z,95.73
2022-11-05T23:49:14.762Z,94.19
2022-11-05T23:51:36.218Z,94.30
2022-11-05T23:53:57.782Z,94.71
2022-11-05T23:56:19.374Z,93.67
2022-11-05T23:58:42.336Z,93.91
